createdAt,value
2018-01-30T00:01:02.646Z,3.23
2018-01-30T00:03:30.289Z,3.13
2018-01-30T00:05:57.951Z,3.00
2018-01-30T00:08:25.616Z,2.80
2018-01-30T00:10:53.277Z,2.63
2018-01-30T00:13:20.917Z,3.37
2018-01-30T00:15:48.583Z,3.50
2018-01-30T00:18:16.245Z,2.93
2018-01-30T00:20:43.928Z,3.50
2018-01-30T00:23:11.589Z,2.97
2018-01-30T00:25:39.320Z,2.73
2018-01-30T00:28:07.103Z,3.30
2018-01-30T00:30:34.889Z,3.10
2018-01-30T00:33:02.553Z,3.50
2018-01-30T00:35:30.236Z,3.17
2018-01-30T00:37:57.888Z,3.57
2018-01-30T00:40:25.575Z,3.50
2018-01-30T00:42:53.215Z,3.03
2018-01-30T00:45:20.904Z,2.90
2018-01-30T00:47:48.526Z,3.00
2018-01-30T00:50:16.183Z,3.37
2018-01-30T00:52:43.851Z,3.20
2018-01-30T00:55:11.545Z,2.57
2018-01-30T00:57:39.208Z,2.97
2018-01-30T01:00:08.065Z,3.50
2018-01-30T01:02:35.741Z,3.13
2018-01-30T01:05:03.462Z,2.70
2018-01-30T01:07:31.143Z,2.83
2018-01-30T01:09:58.822Z,2.93
2018-01-30T01:12:26.498Z,2.50
2018-01-30T01:14:54.149Z,2.53
2018-01-30T01:17:21.794Z,2.90
2018-01-30T01:19:49.461Z,3.10
2018-01-30T01:22:17.105Z,2.90
2018-01-30T01:24:44.769Z,3.20
2018-01-30T01:27:12.436Z,2.70
2018-01-30T01:29:40.311Z,2.90
2018-01-30T01:32:07.948Z,3.03
2018-01-30T01:34:36.409Z,3.67
2018-01-30T01:37:04.260Z,3.40
2018-01-30T01:39:31.905Z,3.77
2018-01-30T01:41:59.823Z,3.17
2018-01-30T01:44:27.493Z,3.70
2018-01-30T01:46:55.898Z,2.77
2018-01-30T01:49:32.504Z,3.33
2018-01-30T01:52:00.188Z,3.53
2018-01-30T01:54:28.133Z,3.40
2018-01-30T01:56:55.798Z,3.43
2018-01-30T01:59:23.492Z,3.57
2018-01-30T02:01:51.395Z,3.60
2018-01-30T02:04:19.066Z,3.87
2018-01-30T02:06:46.729Z,4.47
2018-01-30T02:09:14.411Z,3.40
2018-01-30T02:11:41.998Z,4.17
2018-01-30T02:14:09.667Z,3.67
2018-01-30T02:16:37.379Z,3.30
2018-01-30T02:19:05.076Z,3.83
2018-01-30T02:21:32.966Z,4.37
2018-01-30T02:24:00.634Z,2.87
2018-01-30T02:26:29.052Z,4.33
2018-01-30T02:28:56.727Z,3.80
2018-01-30T02:31:24.374Z,4.33
2018-01-30T02:33:52.072Z,4.17
2018-01-30T02:36:19.730Z,3.57
2018-01-30T02:38:47.385Z,3.47
2018-01-30T02:41:15.029Z,3.00
2018-01-30T02:43:42.695Z,3.57
2018-01-30T02:46:10.388Z,3.47
2018-01-30T02:48:38.050Z,3.80
2018-01-30T02:51:05.842Z,3.93
2018-01-30T02:53:33.500Z,3.40
2018-01-30T02:56:01.340Z,3.77
2018-01-30T02:58:29.011Z,3.73
2018-01-30T03:00:57.131Z,3.17
2018-01-30T03:03:25.573Z,4.17
2018-01-30T03:05:53.705Z,3.00
2018-01-30T03:08:21.411Z,3.50
2018-01-30T03:10:49.199Z,3.70
2018-01-30T03:13:17.055Z,3.03
2018-01-30T03:15:45.457Z,3.00
2018-01-30T03:18:14.019Z,3.90
2018-01-30T03:20:41.773Z,3.80
2018-01-30T03:23:09.454Z,3.57
2018-01-30T03:25:37.124Z,3.50
2018-01-30T03:28:04.957Z,3.70
2018-01-30T03:30:32.612Z,3.93
2018-01-30T03:33:00.289Z,3.53
2018-01-30T03:35:28.263Z,3.67
2018-01-30T03:37:55.951Z,3.53
2018-01-30T03:40:23.597Z,4.10
2018-01-30T03:42:51.249Z,2.77
2018-01-30T03:45:18.926Z,4.13
2018-01-30T03:47:46.658Z,3.23
2018-01-30T03:50:15.684Z,2.90
2018-01-30T03:52:43.271Z,4.30
2018-01-30T03:55:11.712Z,3.07
2018-01-30T03:57:39.374Z,3.23
2018-01-30T04:00:07.055Z,2.73
2018-01-30T04:02:34.922Z,3.57
2018-01-30T04:05:02.686Z,2.53
2018-01-30T04:07:30.379Z,3.37
2018-01-30T04:09:58.048Z,3.13
2018-01-30T04:12:25.705Z,3.30
2018-01-30T04:14:54.142Z,3.53
2018-01-30T04:17:21.834Z,3.60
2018-01-30T04:19:49.678Z,3.13
2018-01-30T04:22:17.431Z,4.17
2018-01-30T04:24:45.477Z,3.10
2018-01-30T04:27:13.134Z,3.50
2018-01-30T04:29:40.805Z,3.23
2018-01-30T04:32:08.434Z,3.57
2018-01-30T04:34:36.103Z,3.23
2018-01-30T04:37:04.973Z,3.57
2018-01-30T04:39:32.799Z,3.20
2018-01-30T04:42:00.509Z,3.37
2018-01-30T04:44:28.387Z,3.33
2018-01-30T04:46:57.208Z,3.13
2018-01-30T04:49:24.866Z,3.67
2018-01-30T04:51:53.966Z,3.30
2018-01-30T04:54:22.072Z,4.23
2018-01-30T04:56:49.911Z,3.57
2018-01-30T04:59:17.740Z,3.13
2018-01-30T05:01:45.555Z,3.17
2018-01-30T05:04:13.402Z,4.30
2018-01-30T05:06:41.435Z,3.77
2018-01-30T05:09:09.100Z,3.43
2018-01-30T05:11:37.728Z,3.20
2018-01-30T05:14:05.396Z,3.37
2018-01-30T05:16:33.074Z,3.10
2018-01-30T05:19:01.235Z,3.60
2018-01-30T05:21:28.904Z,3.37
2018-01-30T05:23:56.546Z,3.23
2018-01-30T05:26:24.307Z,3.40
2018-01-30T05:28:51.985Z,3.53
2018-01-30T05:31:19.655Z,3.50
2018-01-30T05:33:47.296Z,4.00
2018-01-30T05:36:14.998Z,3.50
2018-01-30T05:38:42.680Z,4.13
2018-01-30T05:41:10.569Z,4.03
2018-01-30T05:43:38.245Z,4.30
2018-01-30T05:46:06.664Z,3.83
2018-01-30T05:48:34.327Z,4.23
2018-01-30T05:51:02.006Z,4.17
2018-01-30T05:53:29.898Z,4.73
2018-01-30T05:55:57.946Z,4.27
2018-01-30T05:58:25.633Z,4.73
2018-01-30T06:00:53.350Z,4.80
2018-01-30T06:03:21.015Z,4.90
2018-01-30T06:05:48.675Z,4.60
2018-01-30T06:08:16.573Z,4.73
2018-01-30T06:10:44.338Z,5.00
2018-01-30T06:13:12.018Z,5.37
2018-01-30T06:15:39.700Z,4.73
2018-01-30T06:18:07.356Z,4.60
2018-01-30T06:20:35.016Z,4.97
2018-01-30T06:23:02.670Z,5.20
2018-01-30T06:25:30.325Z,5.23
2018-01-30T06:27:57.993Z,6.43
2018-01-30T06:30:25.659Z,5.97
2018-01-30T06:32:53.360Z,6.03
2018-01-30T06:35:21.027Z,5.47
2018-01-30T06:37:49.464Z,6.90
2018-01-30T06:40:20.247Z,6.63
2018-01-30T06:42:47.943Z,7.77
2018-01-30T06:45:15.648Z,5.83
2018-01-30T06:47:43.324Z,6.43
2018-01-30T06:50:10.960Z,6.57
2018-01-30T06:52:38.642Z,6.73
2018-01-30T06:55:06.458Z,6.70
2018-01-30T06:57:34.191Z,5.97
2018-01-30T07:00:01.829Z,6.70
2018-01-30T07:02:29.520Z,6.40
2018-01-30T07:04:57.632Z,6.43
2018-01-30T07:07:25.732Z,6.03
2018-01-30T07:09:54.404Z,6.20
2018-01-30T07:12:22.069Z,7.33
2018-01-30T07:14:49.768Z,7.47
2018-01-30T07:17:18.179Z,7.13
2018-01-30T07:19:45.866Z,7.03
2018-01-30T07:22:13.535Z,6.53
2018-01-30T07:24:41.206Z,8.83
2018-01-30T07:27:08.880Z,7.63
2018-01-30T07:29:36.521Z,8.20
2018-01-30T07:32:04.169Z,8.10
2018-01-30T07:34:32.630Z,7.90
2018-01-30T07:37:00.312Z,9.63
2018-01-30T07:39:27.987Z,8.73
2018-01-30T07:41:55.589Z,9.47
2018-01-30T07:44:24.018Z,8.93
2018-01-30T07:46:51.671Z,10.50
2018-01-30T07:49:19.334Z,8.40
2018-01-30T07:51:47.283Z,9.17
2018-01-30T07:54:14.968Z,10.63
2018-01-30T07:56:42.603Z,9.23
2018-01-30T07:59:10.292Z,8.87
2018-01-30T08:01:38.993Z,8.30
2018-01-30T08:04:06.687Z,8.23
2018-01-30T08:06:34.326Z,9.30
2018-01-30T08:09:02.012Z,9.23
2018-01-30T08:11:29.713Z,8.13
2018-01-30T08:13:58.179Z,9.40
2018-01-30T08:16:25.852Z,9.67
2018-01-30T08:18:54.295Z,8.87
2018-01-30T08:21:22.063Z,10.57
2018-01-30T08:23:49.874Z,10.47
2018-01-30T08:26:18.316Z,11.20
2018-01-30T08:28:46.020Z,10.73
2018-01-30T08:31:14.669Z,10.83
2018-01-30T08:33:42.528Z,10.10
2018-01-30T08:36:10.344Z,9.40
2018-01-30T08:38:37.999Z,9.87
2018-01-30T08:41:05.656Z,11.43
2018-01-30T08:43:34.135Z,12.63
2018-01-30T08:46:01.800Z,11.33
2018-01-30T08:48:30.422Z,12.43
2018-01-30T08:50:58.061Z,11.00
2018-01-30T08:53:25.879Z,10.10
2018-01-30T08:55:53.618Z,10.27
2018-01-30T08:58:21.507Z,9.20
2018-01-30T09:00:50.017Z,9.30
2018-01-30T09:03:17.681Z,9.97
2018-01-30T09:05:45.282Z,9.00
2018-01-30T09:08:12.873Z,9.70
2018-01-30T09:10:40.775Z,9.27
2018-01-30T09:13:08.382Z,10.07
2018-01-30T09:15:40.007Z,9.53
2018-01-30T09:18:08.040Z,8.37
2018-01-30T09:20:35.932Z,9.03
2018-01-30T09:23:03.602Z,9.10
2018-01-30T09:25:31.247Z,9.80
2018-01-30T09:27:59.037Z,8.67
2018-01-30T09:30:31.053Z,9.17
2018-01-30T09:32:58.742Z,9.90
2018-01-30T09:35:26.727Z,9.33
2018-01-30T09:37:54.374Z,8.37
2018-01-30T09:40:22.075Z,8.30
2018-01-30T09:42:49.931Z,9.03
2018-01-30T09:45:18.363Z,7.83
2018-01-30T09:47:46.061Z,7.97
2018-01-30T09:50:13.757Z,8.47
2018-01-30T09:52:41.430Z,8.40
2018-01-30T09:55:09.101Z,8.73
2018-01-30T09:57:36.761Z,9.03
2018-01-30T10:00:06.330Z,9.83
2018-01-30T10:02:34.171Z,11.10
2018-01-30T10:05:02.016Z,10.10
2018-01-30T10:07:29.699Z,10.40
2018-01-30T10:09:57.363Z,8.70
2018-01-30T10:12:25.357Z,9.80
2018-01-30T10:14:53.055Z,10.30
2018-01-30T10:17:20.748Z,10.53
2018-01-30T10:19:48.574Z,10.13
2018-01-30T10:22:17.011Z,11.27
2018-01-30T10:24:44.682Z,10.23
2018-01-30T10:27:12.334Z,10.13
2018-01-30T10:29:40.005Z,12.03
2018-01-30T10:32:07.716Z,11.17
2018-01-30T10:34:35.287Z,11.50
2018-01-30T10:37:03.049Z,12.47
2018-01-30T10:39:30.693Z,12.57
2018-01-30T10:41:59.135Z,11.83
2018-01-30T10:44:26.781Z,12.37
2018-01-30T10:46:54.418Z,11.30
2018-01-30T10:49:22.109Z,12.53
2018-01-30T10:51:53.235Z,12.17
2018-01-30T10:54:21.021Z,12.37
2018-01-30T10:56:48.750Z,13.27
2018-01-30T10:59:16.516Z,12.83
2018-01-30T11:01:44.960Z,13.53
2018-01-30T11:04:13.631Z,14.23
2018-01-30T11:06:41.304Z,13.60
2018-01-30T11:09:08.968Z,13.33
2018-01-30T11:11:36.636Z,13.23
2018-01-30T11:14:04.290Z,12.83
2018-01-30T11:16:31.961Z,12.40
2018-01-30T11:18:59.635Z,11.73
2018-01-30T11:21:30.584Z,13.13
2018-01-30T11:23:59.185Z,12.80
2018-01-30T11:26:26.841Z,13.07
2018-01-30T11:28:55.281Z,12.57
2018-01-30T11:31:22.982Z,10.00
2018-01-30T11:33:51.418Z,11.43
2018-01-30T11:36:19.473Z,9.30
2018-01-30T11:38:47.212Z,12.00
2018-01-30T11:41:14.953Z,9.93
2018-01-30T11:43:42.602Z,10.70
2018-01-30T11:46:10.267Z,9.60
2018-01-30T11:48:37.985Z,10.40
2018-01-30T11:51:06.606Z,10.33
2018-01-30T11:53:34.271Z,9.97
2018-01-30T11:56:01.894Z,10.17
2018-01-30T11:58:29.894Z,10.83
2018-01-30T12:00:59.062Z,10.13
2018-01-30T12:03:27.168Z,10.77
2018-01-30T12:05:57.463Z,9.90
2018-01-30T12:08:26.482Z,8.90
2018-01-30T12:10:55.433Z,9.60
2018-01-30T12:13:25.146Z,11.03
2018-01-30T12:15:55.405Z,11.43
2018-01-30T12:18:26.106Z,9.60
2018-01-30T12:20:54.800Z,10.27
2018-01-30T12:23:25.298Z,10.03
2018-01-30T12:25:55.989Z,10.43
2018-01-30T12:28:28.388Z,10.23
2018-01-30T12:30:57.779Z,10.57
2018-01-30T12:33:29.945Z,9.37
2018-01-30T12:36:01.911Z,10.53
2018-01-30T12:38:31.384Z,9.30
2018-01-30T12:40:59.531Z,8.73
2018-01-30T12:43:29.702Z,8.57
2018-01-30T12:45:58.693Z,9.17
2018-01-30T12:48:27.335Z,8.50
2018-01-30T12:50:58.527Z,7.47
2018-01-30T12:53:29.058Z,6.93
2018-01-30T12:55:57.496Z,6.90
2018-01-30T12:58:27.383Z,9.73
2018-01-30T13:00:57.575Z,8.80
2018-01-30T13:03:25.433Z,10.10
2018-01-30T13:05:53.130Z,10.40
2018-01-30T13:08:20.847Z,10.53
2018-01-30T13:10:49.562Z,11.40
2018-01-30T13:13:17.218Z,11.03
2018-01-30T13:15:44.894Z,10.53
2018-01-30T13:18:12.548Z,10.83
2018-01-30T13:20:40.201Z,10.47
2018-01-30T13:23:08.004Z,9.67
2018-01-30T13:25:35.668Z,10.23
2018-01-30T13:28:03.338Z,10.93
2018-01-30T13:30:30.998Z,10.10
2018-01-30T13:32:58.657Z,10.87
2018-01-30T13:35:26.349Z,10.63
2018-01-30T13:37:54.804Z,10.93
2018-01-30T13:40:24.592Z,12.70
2018-01-30T13:42:52.269Z,13.07
2018-01-30T13:45:19.947Z,12.37
2018-01-30T13:47:47.749Z,14.17
2018-01-30T13:50:15.447Z,13.43
2018-01-30T13:52:43.110Z,15.00
2018-01-30T13:55:10.816Z,14.80
2018-01-30T13:57:38.507Z,14.20
2018-01-30T14:00:06.208Z,14.83
2018-01-30T14:02:33.974Z,14.83
2018-01-30T14:05:01.889Z,15.00
2018-01-30T14:07:30.285Z,14.47
2018-01-30T14:09:59.084Z,13.93
2018-01-30T14:12:26.880Z,13.83
2018-01-30T14:14:54.614Z,13.30
2018-01-30T14:17:22.424Z,13.20
2018-01-30T14:19:50.113Z,14.07
2018-01-30T14:22:17.920Z,13.40
2018-01-30T14:24:45.605Z,13.00
2018-01-30T14:27:13.267Z,13.37
2018-01-30T14:29:40.934Z,14.50
2018-01-30T14:32:08.642Z,12.53
2018-01-30T14:34:36.295Z,13.20
2018-01-30T14:37:04.653Z,12.63
2018-01-30T14:39:32.396Z,12.67
2018-01-30T14:42:00.128Z,11.97
2018-01-30T14:44:27.829Z,13.57
2018-01-30T14:46:55.490Z,12.43
2018-01-30T14:49:23.173Z,11.73
2018-01-30T14:51:52.877Z,12.50
2018-01-30T14:54:20.541Z,13.20
2018-01-30T14:56:48.225Z,12.00
2018-01-30T14:59:15.888Z,12.70
2018-01-30T15:01:43.715Z,12.40
2018-01-30T15:04:11.381Z,12.57
2018-01-30T15:06:39.130Z,12.60
2018-01-30T15:09:06.845Z,12.60
2018-01-30T15:11:34.519Z,11.77
2018-01-30T15:14:02.308Z,12.30
2018-01-30T15:16:30.358Z,12.40
2018-01-30T15:18:58.172Z,14.30
2018-01-30T15:21:33.407Z,15.37
2018-01-30T15:24:01.170Z,13.77
2018-01-30T15:26:28.928Z,14.87
2018-01-30T15:28:56.786Z,13.60
2018-01-30T15:31:24.485Z,13.03
2018-01-30T15:33:52.171Z,13.00
2018-01-30T15:36:20.133Z,14.83
2018-01-30T15:38:49.017Z,13.63
2018-01-30T15:41:20.261Z,13.60
2018-01-30T15:43:53.709Z,13.73
2018-01-30T15:46:22.162Z,14.33
2018-01-30T15:48:49.902Z,14.00
2018-01-30T15:51:17.661Z,15.13
2018-01-30T15:53:45.593Z,13.87
2018-01-30T15:56:13.548Z,14.97
2018-01-30T15:58:42.218Z,14.17
2018-01-30T16:01:11.111Z,13.67
2018-01-30T16:03:38.966Z,14.37
2018-01-30T16:06:06.865Z,12.80
2018-01-30T16:08:35.891Z,13.43
2018-01-30T16:11:04.690Z,13.30
2018-01-30T16:13:32.576Z,13.50
2018-01-30T16:16:00.250Z,13.63
2018-01-30T16:18:27.965Z,13.40
2018-01-30T16:20:56.323Z,12.17
2018-01-30T16:23:24.757Z,13.67
2018-01-30T16:25:52.412Z,12.20
2018-01-30T16:28:20.864Z,11.67
2018-01-30T16:30:51.603Z,12.63
2018-01-30T16:33:19.307Z,11.50
2018-01-30T16:35:46.974Z,11.80
2018-01-30T16:38:14.659Z,12.40
2018-01-30T16:40:42.304Z,11.10
2018-01-30T16:43:10.008Z,12.13
2018-01-30T16:45:38.451Z,12.03
2018-01-30T16:48:06.154Z,11.03
2018-01-30T16:50:33.826Z,11.97
2018-01-30T16:53:02.267Z,11.57
2018-01-30T16:55:29.931Z,11.37
2018-01-30T16:57:57.601Z,10.87
2018-01-30T17:00:28.835Z,11.37
2018-01-30T17:02:56.504Z,11.00
2018-01-30T17:05:24.181Z,11.50
2018-01-30T17:07:51.842Z,12.40
2018-01-30T17:10:19.509Z,11.67
2018-01-30T17:12:47.171Z,13.47
2018-01-30T17:15:14.837Z,14.47
2018-01-30T17:17:42.497Z,15.70
2018-01-30T17:20:10.197Z,15.87
2018-01-30T17:22:37.966Z,15.07
2018-01-30T17:25:05.607Z,15.47
2018-01-30T17:27:34.061Z,15.60
2018-01-30T17:30:06.408Z,16.40
2018-01-30T17:32:34.082Z,17.10
2018-01-30T17:35:01.768Z,18.03
2018-01-30T17:37:29.420Z,19.03
2018-01-30T17:39:57.099Z,17.33
2018-01-30T17:42:24.750Z,18.90
2018-01-30T17:44:52.427Z,16.73
2018-01-30T17:47:20.115Z,17.70
2018-01-30T17:49:48.536Z,18.43
2018-01-30T17:54:48.973Z,19.17
2018-01-30T17:57:16.627Z,18.67
2018-01-30T17:59:44.311Z,19.40
2018-01-30T18:02:11.971Z,20.20
2018-01-30T18:04:39.648Z,19.90
2018-01-30T18:07:07.332Z,20.30
2018-01-30T18:09:34.968Z,19.13
2018-01-30T18:12:03.765Z,20.63
2018-01-30T18:14:31.375Z,20.80
2018-01-30T18:16:59.815Z,19.77
2018-01-30T18:19:27.551Z,21.33
2018-01-30T18:21:55.241Z,21.20
2018-01-30T18:24:22.923Z,22.23
2018-01-30T18:26:50.592Z,22.17
2018-01-30T18:29:18.267Z,20.83
2018-01-30T18:31:46.686Z,21.83
2018-01-30T18:34:14.572Z,23.50
2018-01-30T18:36:42.270Z,23.67
2018-01-30T18:39:09.966Z,24.13
2018-01-30T18:41:38.562Z,21.20
2018-01-30T18:44:07.000Z,23.60
2018-01-30T18:46:35.447Z,21.73
2018-01-30T18:49:03.126Z,24.10
2018-01-30T18:51:30.813Z,24.67
2018-01-30T18:53:58.499Z,22.20
2018-01-30T18:56:26.473Z,22.43
2018-01-30T18:58:54.148Z,22.07
2018-01-30T19:01:21.792Z,22.53
2018-01-30T19:03:49.436Z,21.57
2018-01-30T19:06:17.875Z,24.03
2018-01-30T19:08:45.535Z,21.73
2018-01-30T19:11:16.364Z,21.47
2018-01-30T19:13:44.000Z,22.07
2018-01-30T19:16:11.645Z,20.63
2018-01-30T19:18:40.073Z,21.97
2018-01-30T19:21:07.723Z,22.20
2018-01-30T19:23:35.409Z,23.40
2018-01-30T19:26:03.091Z,23.00
2018-01-30T19:28:30.748Z,22.37
2018-01-30T19:30:58.437Z,23.40
2018-01-30T19:33:26.091Z,23.30
2018-01-30T19:35:53.766Z,27.53
2018-01-30T19:38:22.224Z,23.83
2018-01-30T19:40:51.838Z,23.70
2018-01-30T19:43:19.498Z,22.60
2018-01-30T19:45:47.173Z,23.70
2018-01-30T19:48:14.825Z,22.50
2018-01-30T19:50:42.492Z,22.47
2018-01-30T19:53:10.179Z,22.70
2018-01-30T19:55:37.840Z,22.57
2018-01-30T19:58:05.507Z,26.80
2018-01-30T20:00:33.957Z,26.47
2018-01-30T20:03:01.637Z,23.13
2018-01-30T20:05:29.314Z,31.43
2018-01-30T20:07:56.971Z,32.97
2018-01-30T20:10:27.579Z,29.42
2018-01-30T20:12:55.252Z,28.13
2018-01-30T20:15:22.940Z,27.13
2018-01-30T20:17:51.371Z,29.93
2018-01-30T20:20:19.052Z,29.37
2018-01-30T20:22:46.768Z,26.90
2018-01-30T20:25:14.465Z,26.40
2018-01-30T20:27:42.145Z,26.77
2018-01-30T20:30:09.865Z,29.67
2018-01-30T20:32:37.515Z,32.10
2018-01-30T20:35:05.189Z,30.60
2018-01-30T20:37:32.882Z,29.13
2018-01-30T20:40:01.513Z,29.93
2018-01-30T20:42:29.947Z,30.83
2018-01-30T20:44:57.756Z,30.93
2018-01-30T20:47:25.435Z,29.83
2018-01-30T20:49:53.081Z,29.50
2018-01-30T20:52:20.775Z,30.70
2018-01-30T20:54:48.536Z,32.17
2018-01-30T20:57:16.188Z,30.37
2018-01-30T20:59:43.882Z,30.67
2018-01-30T21:02:11.564Z,30.07
2018-01-30T21:04:39.237Z,29.07
2018-01-30T21:07:06.904Z,27.63
2018-01-30T21:09:34.586Z,33.47
2018-01-30T21:12:02.979Z,32.93
2018-01-30T21:14:30.617Z,33.30
2018-01-30T21:16:58.276Z,34.90
2018-01-30T21:19:25.935Z,33.17
2018-01-30T21:21:53.579Z,28.50
2018-01-30T21:24:21.265Z,27.17
2018-01-30T21:26:48.941Z,25.30
2018-01-30T21:29:16.613Z,27.30
2018-01-30T21:31:45.250Z,28.70
2018-01-30T21:34:12.913Z,27.60
2018-01-30T21:36:40.603Z,28.20
2018-01-30T21:39:08.285Z,29.73
2018-01-30T21:41:35.943Z,29.10
2018-01-30T21:44:04.384Z,32.43
2018-01-30T21:46:32.046Z,29.27
2018-01-30T21:48:59.707Z,29.70
2018-01-30T21:51:27.368Z,29.33
2018-01-30T21:53:55.049Z,29.10
2018-01-30T21:56:22.691Z,29.70
2018-01-30T21:58:50.365Z,29.07
2018-01-30T22:01:30.644Z,27.97
2018-01-30T22:03:58.356Z,28.57
2018-01-30T22:06:26.040Z,32.83
2018-01-30T22:08:53.714Z,33.57
2018-01-30T22:11:21.368Z,32.67
2018-01-30T22:13:49.039Z,30.63
2018-01-30T22:16:16.739Z,29.53
2018-01-30T22:18:44.422Z,29.07
2018-01-30T22:21:12.854Z,32.77
2018-01-30T22:23:40.514Z,28.87
2018-01-30T22:26:08.188Z,28.47
2018-01-30T22:28:35.844Z,29.53
2018-01-30T22:31:03.623Z,28.23
2018-01-30T22:33:31.284Z,28.77
2018-01-30T22:35:59.052Z,29.47
2018-01-30T22:38:26.721Z,27.50
2018-01-30T22:40:54.422Z,29.73
2018-01-30T22:43:22.104Z,30.20
2018-01-30T22:45:49.798Z,28.33
